Time;durP1;ratioP1;P1;durP2;ratioP2;P2;SDS_P1;SDS_P2;PMS_P1;PMS_P2;Temp;Humidity;BMP_temperature;BMP_pressure;BME280_temperature;BME280_humidity;BME280_pressure;Samples;Min_cycle;Max_cycle;Signal;HPM_P1;HPM_P2
2022/12/12 00:01:31;;;;;;;28.60;12.48;;;3.10;99.90;;;;;;5031846;28;20029;-72
2022/12/12 00:03:59;;;;;;;28.05;11.77;;;3.10;99.90;;;;;;5036003;28;20040;-75
2022/12/12 00:06:25;;;;;;;21.02;10.85;;;3.10;99.90;;;;;;5034615;28;20029;-74
2022/12/12 00:08:54;;;;;;;24.58;11.52;;;3.00;99.90;;;;;;5034171;28;20029;-75
2022/12/12 00:11:20;;;;;;;28.05;12.18;;;3.00;99.90;;;;;;5036720;28;20048;-74
2022/12/12 00:13:46;;;;;;;26.73;11.82;;;3.10;99.90;;;;;;5044975;28;20422;-74
2022/12/12 00:16:12;;;;;;;30.55;12.88;;;3.00;99.90;;;;;;5041109;28;20504;-72
2022/12/12 00:18:38;;;;;;;27.42;12.57;;;3.00;99.90;;;;;;5035983;28;20072;-74
2022/12/12 00:21:13;;;;;;;27.10;11.90;;;2.90;99.90;;;;;;5036210;28;20029;-75
2022/12/12 00:23:39;;;;;;;27.55;12.07;;;2.90;99.90;;;;;;5031010;28;20053;-73
2022/12/12 00:26:13;;;;;;;29.63;12.23;;;2.90;99.90;;;;;;5030098;28;20434;-73
2022/12/12 00:28:39;;;;;;;25.48;11.93;;;2.90;99.90;;;;;;5031806;28;20150;-74
2022/12/12 00:31:04;;;;;;;23.52;11.40;;;2.90;99.90;;;;;;5028224;28;20122;-74
2022/12/12 00:33:30;;;;;;;26.27;11.35;;;2.90;99.90;;;;;;5036436;28;20022;-74
2022/12/12 00:35:56;;;;;;;22.58;11.40;;;2.80;99.90;;;;;;5027956;28;20064;-73
2022/12/12 00:38:22;;;;;;;24.98;10.68;;;2.80;99.90;;;;;;5039654;28;20112;-74
2022/12/12 00:40:49;;;;;;;21.25;10.68;;;2.80;99.90;;;;;;5034815;28;20116;-73
2022/12/12 00:43:14;;;;;;;24.88;11.75;;;2.80;99.90;;;;;;5037353;28;20030;-74
2022/12/12 00:45:42;;;;;;;23.73;10.98;;;2.90;99.90;;;;;;5037038;28;20024;-74
2022/12/12 00:48:08;;;;;;;26.05;11.02;;;2.90;99.90;;;;;;5032638;28;20032;-72
2022/12/12 00:50:36;;;;;;;26.10;11.90;;;3.00;99.90;;;;;;5032888;28;20051;-75
2022/12/12 00:53:02;;;;;;;26.95;12.27;;;3.10;99.90;;;;;;5031550;28;20018;-74
2022/12/12 00:55:27;;;;;;;25.45;11.48;;;3.10;99.90;;;;;;5035093;28;20048;-76
2022/12/12 00:57:53;;;;;;;28.25;12.00;;;3.00;99.90;;;;;;5033216;28;20037;-72
2022/12/12 01:00:21;;;;;;;22.23;10.82;;;3.10;99.90;;;;;;5035347;28;20017;-73
2022/12/12 01:02:48;;;;;;;20.45;11.15;;;3.00;99.90;;;;;;5037490;28;20468;-77
2022/12/12 01:05:15;;;;;;;27.30;11.40;;;3.00;99.90;;;;;;5037697;28;20070;-77
2022/12/12 01:07:41;;;;;;;26.42;11.05;;;3.00;99.90;;;;;;5038674;28;20041;-74
2022/12/12 01:10:08;;;;;;;23.60;11.30;;;3.00;99.90;;;;;;5033149;28;20033;-73
2022/12/12 01:12:36;;;;;;;24.60;10.98;;;3.10;99.90;;;;;;5031810;28;20521;-72
2022/12/12 01:15:05;;;;;;;24.30;11.60;;;3.10;99.90;;;;;;5029795;28;20040;-72
2022/12/12 01:17:36;;;;;;;28.52;12.02;;;3.10;99.90;;;;;;5030222;28;20446;-70
2022/12/12 01:20:07;;;;;;;26.45;12.02;;;3.10;99.90;;;;;;5031594;28;20037;-75
2022/12/12 01:22:33;;;;;;;24.52;11.32;;;3.10;99.90;;;;;;5029113;28;20085;-74
2022/12/12 01:24:59;;;;;;;24.48;11.10;;;3.10;99.90;;;;;;5037075;28;20033;-73
2022/12/12 01:27:26;;;;;;;23.98;11.57;;;3.20;99.90;;;;;;5035636;28;21272;-74
2022/12/12 01:29:54;;;;;;;24.13;11.38;;;3.20;99.90;;;;;;5042133;28;20029;-73
2022/12/12 01:32:20;;;;;;;25.02;11.02;;;3.30;99.90;;;;;;5041479;28;20018;-74
2022/12/12 01:34:46;;;;;;;25.75;12.50;;;3.30;99.90;;;;;;5035555;28;20090;-73
2022/12/12 01:37:12;;;;;;;25.38;11.98;;;3.30;99.90;;;;;;5032723;28;20029;-74
2022/12/12 01:39:37;;;;;;;22.88;11.32;;;3.30;99.90;;;;;;5030183;28;20040;-72
2022/12/12 01:42:03;;;;;;;25.83;12.52;;;3.20;99.90;;;;;;5050189;22;20073;-74
2022/12/12 01:44:48;;;;;;;25.60;11.73;;;3.20;99.90;;;;;;5034306;28;20135;-74
2022/12/12 01:47:16;;;;;;;26.48;12.18;;;3.20;99.90;;;;;;5021938;28;20450;-73
2022/12/12 01:49:48;;;;;;;26.10;12.45;;;3.10;99.90;;;;;;5022687;28;20116;-74
2022/12/12 01:52:25;;;;;;;30.77;12.70;;;3.10;99.90;;;;;;5027364;28;20254;-73
2022/12/12 01:54:57;;;;;;;25.75;11.77;;;3.10;99.90;;;;;;5022235;28;20052;-75
2022/12/12 01:57:31;;;;;;;29.00;12.27;;;3.20;99.90;;;;;;5024817;28;20029;-74
2022/12/12 01:59:59;;;;;;;32.03;14.15;;;3.10;99.90;;;;;;5020411;28;20140;-73
2022/12/12 02:02:26;;;;;;;25.73;12.20;;;3.10;99.90;;;;;;5024239;28;20072;-75
2022/12/12 02:04:52;;;;;;;26.58;12.13;;;3.00;99.90;;;;;;5019345;28;20034;-75
2022/12/12 02:07:17;;;;;;;31.27;13.27;;;3.00;99.90;;;;;;5038271;28;20024;-74
2022/12/12 02:09:46;;;;;;;29.20;12.93;;;3.00;99.90;;;;;;5022636;28;20029;-76
2022/12/12 02:12:13;;;;;;;28.20;12.82;;;3.00;99.90;;;;;;5018962;28;20022;-72
2022/12/12 02:14:48;;;;;;;27.23;12.00;;;3.00;99.90;;;;;;5021797;28;20025;-75
2022/12/12 02:17:25;;;;;;;28.65;12.68;;;3.00;99.90;;;;;;5022407;28;20036;-74
2022/12/12 02:20:15;;;;;;;27.27;12.75;;;3.00;99.90;;;;;;5024139;28;20061;-74
2022/12/12 02:22:46;;;;;;;28.63;12.95;;;3.00;99.90;;;;;;5020716;28;20026;-73
2022/12/12 02:25:42;;;;;;;33.40;13.68;;;2.90;99.90;;;;;;5018287;28;20038;-78
2022/12/12 02:28:26;;;;;;;30.65;12.63;;;2.90;99.90;;;;;;5033926;28;20030;-77
2022/12/12 02:31:32;;;;;;;32.22;13.65;;;2.90;99.90;;;;;;5016434;28;20098;-73
2022/12/12 02:34:19;;;;;;;31.45;13.35;;;2.90;99.90;;;;;;5018841;28;20018;-76
2022/12/12 02:37:00;;;;;;;29.70;12.95;;;2.90;99.90;;;;;;5031170;28;20034;-75
2022/12/12 02:39:53;;;;;;;29.35;13.35;;;2.90;99.90;;;;;;5018679;28;20549;-78
2022/12/12 02:42:22;;;;;;;27.13;12.43;;;2.80;99.90;;;;;;5016480;28;20030;-77
2022/12/12 02:44:57;;;;;;;27.15;12.73;;;2.80;99.90;;;;;;5017477;28;20021;-78
2022/12/12 02:47:30;;;;;;;34.00;14.20;;;2.80;99.90;;;;;;5038015;28;20228;-77
2022/12/12 02:49:59;;;;;;;29.17;13.35;;;2.80;99.90;;;;;;5021683;28;20030;-75
2022/12/12 02:52:28;;;;;;;30.33;13.20;;;2.70;99.90;;;;;;5019100;28;20026;-75
2022/12/12 02:54:56;;;;;;;27.08;12.70;;;2.70;99.90;;;;;;5019486;28;20087;-77
2022/12/12 02:57:25;;;;;;;33.42;13.68;;;2.60;99.90;;;;;;5020773;28;20066;-78
2022/12/12 02:59:57;;;;;;;29.27;13.25;;;2.60;99.90;;;;;;5025742;28;20094;-78
2022/12/12 03:02:28;;;;;;;29.13;13.30;;;2.50;99.90;;;;;;5021076;28;20037;-75
2022/12/12 03:07:56;;;;;;;28.10;12.68;;;2.30;99.90;;;;;;5023618;28;20099;-78
2022/12/12 03:10:31;;;;;;;27.42;13.35;;;2.30;99.90;;;;;;5024738;28;20030;-75
2022/12/12 03:13:18;;;;;;;26.77;13.20;;;2.30;99.90;;;;;;5025552;28;20087;-74
2022/12/12 03:15:56;;;;;;;29.00;12.38;;;2.30;99.90;;;;;;5039331;28;20478;-75
2022/12/12 03:18:29;;;;;;;30.23;13.63;;;2.30;99.90;;;;;;5017213;28;20057;-78
2022/12/12 03:20:57;;;;;;;;;;;2.30;99.90;;;;;;5039785;28;20036;-74
2022/12/12 03:23:38;;;;;;;29.92;12.70;;;2.30;99.90;;;;;;5023169;28;19924;-76
2022/12/12 03:26:17;;;;;;;30.00;13.07;;;2.30;99.90;;;;;;5023735;28;20109;-77
2022/12/12 03:28:51;;;;;;;32.15;13.18;;;2.30;99.90;;;;;;5023049;28;20462;-77
2022/12/12 03:31:23;;;;;;;32.60;13.27;;;2.30;99.90;;;;;;5024636;28;20075;-76
2022/12/12 03:34:13;;;;;;;32.97;13.35;;;2.30;99.90;;;;;;5024157;28;20121;-77
2022/12/12 03:36:58;;;;;;;33.42;13.50;;;2.30;99.90;;;;;;5027715;28;20120;-76
2022/12/12 03:39:34;;;;;;;36.45;14.05;;;2.30;99.90;;;;;;5020759;28;20133;-76
2022/12/12 03:42:19;;;;;;;33.45;14.32;;;2.30;99.90;;;;;;5024698;28;20037;-77
2022/12/12 03:45:10;;;;;;;31.83;13.77;;;2.20;99.90;;;;;;5026693;28;20073;-76
2022/12/12 03:47:51;;;;;;;31.95;13.35;;;2.20;99.90;;;;;;5021862;28;20041;-76
2022/12/12 03:50:24;;;;;;;33.22;13.95;;;2.10;99.90;;;;;;5025031;28;20030;-76
2022/12/12 03:53:11;;;;;;;29.08;13.35;;;2.10;99.90;;;;;;5026465;28;20032;-77
2022/12/12 03:55:59;;;;;;;30.52;13.45;;;2.00;99.90;;;;;;5024122;28;20034;-78
2022/12/12 03:58:42;;;;;;;31.45;12.85;;;1.90;99.90;;;;;;5022518;28;20188;-76
2022/12/12 04:01:11;;;;;;;30.05;12.23;;;1.90;99.90;;;;;;5039022;28;20116;-77
2022/12/12 04:03:40;;;;;;;34.78;14.02;;;1.80;99.90;;;;;;5021937;28;20124;-77
2022/12/12 04:06:26;;;;;;;30.20;13.25;;;1.70;99.90;;;;;;5020405;28;20107;-77
2022/12/12 04:14:41;;;;;;;29.42;13.05;;;1.60;99.90;;;;;;5023361;28;20043;-77
2022/12/12 04:17:13;;;;;;;28.20;13.23;;;1.60;99.90;;;;;;5027048;28;20079;-77
2022/12/12 04:25:30;;;;;;;32.47;12.50;;;1.50;99.90;;;;;;5032028;28;20102;-76
2022/12/12 04:28:00;;;;;;;28.50;12.93;;;1.50;99.90;;;;;;5024341;28;20559;-76
2022/12/12 04:30:30;;;;;;;34.55;13.10;;;1.50;99.90;;;;;;5033877;28;20042;-77
2022/12/12 04:33:12;;;;;;;32.03;13.88;;;1.50;99.90;;;;;;5024502;28;20025;-75
2022/12/12 04:35:44;;;;;;;30.85;13.82;;;1.50;99.90;;;;;;5025389;28;20025;-77
2022/12/12 04:38:15;;;;;;;30.98;13.98;;;1.50;99.90;;;;;;5021382;28;20034;-76
2022/12/12 04:40:45;;;;;;;34.53;14.57;;;1.40;99.90;;;;;;5028132;28;20034;-76
2022/12/12 04:43:24;;;;;;;34.22;13.30;;;1.40;99.90;;;;;;5036769;28;20087;-77
2022/12/12 04:45:55;;;;;;;34.47;13.57;;;1.30;99.90;;;;;;5020215;28;20470;-78
2022/12/12 04:48:30;;;;;;;33.33;12.73;;;1.30;99.90;;;;;;5025333;28;20064;-77
2022/12/12 04:50:59;;;;;;;33.28;13.65;;;1.30;99.90;;;;;;5021279;28;20183;-77
2022/12/12 04:53:32;;;;;;;27.90;12.77;;;1.20;99.90;;;;;;5019627;28;20456;-77
2022/12/12 04:56:02;;;;;;;32.88;13.63;;;1.10;99.90;;;;;;5019718;28;20064;-77
2022/12/12 04:58:28;;;;;;;29.50;13.23;;;1.10;99.90;;;;;;5025667;28;20044;-77
2022/12/12 05:01:05;;;;;;;34.20;14.65;;;1.10;99.90;;;;;;5020646;28;20515;-74
2022/12/12 05:03:37;;;;;;;34.30;13.52;;;1.10;99.90;;;;;;5021592;28;20413;-77
2022/12/12 05:06:11;;;;;;;37.83;15.45;;;1.10;99.90;;;;;;5022564;28;20026;-74
2022/12/12 05:08:41;;;;;;;36.47;14.18;;;1.00;99.90;;;;;;5042756;28;20507;-77
2022/12/12 05:11:11;;;;;;;36.72;13.40;;;1.00;99.90;;;;;;5020015;28;20030;-76
2022/12/12 05:13:39;;;;;;;36.60;14.95;;;1.00;99.90;;;;;;5023320;28;20107;-77
2022/12/12 05:16:13;;;;;;;33.03;12.88;;;1.00;99.90;;;;;;5024905;28;20061;-76
2022/12/12 05:18:39;;;;;;;35.05;14.90;;;1.00;99.90;;;;;;5017535;28;20141;-76
2022/12/12 05:21:05;;;;;;;36.50;14.32;;;0.90;99.90;;;;;;5017023;28;20040;-78
2022/12/12 05:23:30;;;;;;;28.35;13.30;;;0.90;99.90;;;;;;5019972;28;20144;-75
2022/12/12 05:25:56;;;;;;;32.17;13.60;;;0.90;99.90;;;;;;5021186;28;20033;-76
2022/12/12 05:28:21;;;;;;;33.33;14.10;;;0.80;99.90;;;;;;5021942;28;20331;-77
2022/12/12 05:30:52;;;;;;;31.95;14.45;;;0.80;99.90;;;;;;5018183;28;20450;-77
2022/12/12 05:33:20;;;;;;;33.17;14.10;;;0.80;99.90;;;;;;5019085;28;20045;-77
2022/12/12 05:35:45;;;;;;;35.22;14.55;;;0.70;99.90;;;;;;5038441;28;20029;-77
2022/12/12 05:38:13;;;;;;;26.90;13.73;;;0.70;99.90;;;;;;5033848;28;20029;-77
2022/12/12 05:40:41;;;;;;;32.90;13.70;;;0.70;99.90;;;;;;5017602;28;20112;-75
2022/12/12 05:43:09;;;;;;;35.90;13.88;;;0.70;99.90;;;;;;5021263;28;20075;-76
2022/12/12 05:45:34;;;;;;;38.90;14.90;;;0.70;99.90;;;;;;5020879;28;20029;-76
2022/12/12 05:48:00;;;;;;;32.15;13.88;;;0.70;99.90;;;;;;5034304;28;20032;-76
2022/12/12 05:50:26;;;;;;;36.42;14.65;;;0.70;99.90;;;;;;5034326;28;20370;-77
2022/12/12 05:52:54;;;;;;;34.47;13.35;;;0.70;99.90;;;;;;5019982;28;20056;-76
2022/12/12 05:55:19;;;;;;;30.38;14.23;;;0.80;99.90;;;;;;5018412;28;20029;-76
2022/12/12 05:57:45;;;;;;;47.13;16.15;;;0.80;99.90;;;;;;5019630;28;20464;-75
2022/12/12 06:00:11;;;;;;;42.38;15.55;;;0.80;99.90;;;;;;5020696;28;20124;-76
2022/12/12 06:02:37;;;;;;;38.03;13.80;;;0.80;99.90;;;;;;5023304;28;20465;-76
2022/12/12 06:05:04;;;;;;;36.65;14.02;;;0.90;99.90;;;;;;5021249;28;20110;-75
2022/12/12 06:07:29;;;;;;;35.65;14.48;;;0.80;99.90;;;;;;5021083;28;20033;-77
2022/12/12 06:09:55;;;;;;;34.30;14.73;;;0.80;99.90;;;;;;5040929;28;20021;-74
2022/12/12 06:12:21;;;;;;;34.40;14.93;;;0.70;99.90;;;;;;5020893;28;20474;-76
2022/12/12 06:14:49;;;;;;;35.22;14.65;;;0.70;99.90;;;;;;5030923;28;20460;-75
2022/12/12 06:17:14;;;;;;;33.65;14.52;;;0.60;99.90;;;;;;5016807;28;20419;-75
2022/12/12 06:19:41;;;;;;;34.25;14.10;;;0.60;99.90;;;;;;5017456;28;20040;-76
2022/12/12 06:22:06;;;;;;;35.40;15.20;;;0.60;99.90;;;;;;5025908;28;20025;-76
2022/12/12 06:24:34;;;;;;;31.95;14.48;;;0.70;99.90;;;;;;5017322;28;20553;-76
2022/12/12 06:27:00;;;;;;;42.10;16.70;;;0.70;99.90;;;;;;5038367;28;20013;-77
2022/12/12 06:29:26;;;;;;;43.55;16.08;;;0.60;99.90;;;;;;5020848;28;20496;-76
2022/12/12 06:31:54;;;;;;;50.65;16.13;;;0.60;99.90;;;;;;5021003;28;20029;-75
2022/12/12 06:34:19;;;;;;;33.75;15.35;;;0.60;99.90;;;;;;5038182;28;20018;-76
2022/12/12 06:36:47;;;;;;;41.33;16.25;;;0.70;99.90;;;;;;5019840;28;20124;-76
2022/12/12 06:39:13;;;;;;;40.70;15.88;;;0.70;99.90;;;;;;5020999;28;20022;-74
2022/12/12 06:41:39;;;;;;;38.75;16.52;;;0.70;99.90;;;;;;5026306;28;20040;-77
2022/12/12 06:44:07;;;;;;;42.50;17.40;;;0.70;99.90;;;;;;5019983;28;20037;-76
2022/12/12 06:46:33;;;;;;;34.70;16.52;;;0.70;99.90;;;;;;5021870;28;20079;-77
2022/12/12 06:49:08;;;;;;;41.03;17.48;;;0.60;99.90;;;;;;5039880;28;20600;-77
2022/12/12 06:51:36;;;;;;;35.92;16.25;;;0.60;99.90;;;;;;5022821;28;20021;-76
2022/12/12 06:54:04;;;;;;;41.33;17.75;;;0.50;99.90;;;;;;5028482;28;20017;-76
2022/12/12 06:56:29;;;;;;;38.70;15.38;;;0.40;99.90;;;;;;5024770;28;20033;-76
2022/12/12 06:58:57;;;;;;;40.60;15.73;;;0.30;99.90;;;;;;5017614;28;20029;-77
2022/12/12 07:01:23;;;;;;;37.10;15.68;;;0.20;99.90;;;;;;5034879;28;20033;-77
2022/12/12 07:03:52;;;;;;;39.47;15.23;;;0.20;99.90;;;;;;5019137;28;20021;-75
2022/12/12 07:06:21;;;;;;;37.22;15.88;;;0.10;99.90;;;;;;5018358;28;20415;-76
2022/12/12 07:08:48;;;;;;;38.67;14.88;;;0.00;99.90;;;;;;5017062;28;20105;-76
2022/12/12 07:11:16;;;;;;;46.08;15.32;;;0.00;99.90;;;;;;5018149;28;20026;-77
2022/12/12 07:13:42;;;;;;;36.63;15.18;;;0.00;99.90;;;;;;5036887;28;20021;-77
2022/12/12 07:16:11;;;;;;;33.85;14.93;;;0.00;99.90;;;;;;5019414;28;20026;-76
2022/12/12 07:18:37;;;;;;;37.83;16.27;;;0.00;99.90;;;;;;5021581;28;20474;-76
2022/12/12 07:21:04;;;;;;;37.50;14.27;;;-0.10;99.90;;;;;;5020914;28;20041;-76
2022/12/12 07:23:30;;;;;;;41.03;14.80;;;-0.10;99.90;;;;;;5021606;28;20153;-75
2022/12/12 07:25:56;;;;;;;36.42;15.27;;;-0.10;99.90;;;;;;5021831;28;20025;-74
2022/12/12 07:28:23;;;;;;;42.67;15.43;;;-0.10;99.90;;;;;;5023936;28;20026;-76
2022/12/12 07:30:49;;;;;;;41.58;16.25;;;-0.10;99.90;;;;;;5037531;28;20112;-77
2022/12/12 07:33:16;;;;;;;36.40;13.82;;;0.00;99.90;;;;;;5021194;28;20105;-76
2022/12/12 07:35:42;;;;;;;45.15;16.50;;;0.00;99.90;;;;;;5022212;28;20034;-73
2022/12/12 07:38:09;;;;;;;43.60;15.98;;;0.00;99.90;;;;;;5019540;28;20098;-75
2022/12/12 07:40:35;;;;;;;37.13;15.70;;;0.00;99.90;;;;;;5022052;28;20117;-76
2022/12/12 07:43:01;;;;;;;36.20;14.55;;;0.00;99.90;;;;;;5036637;28;20747;-77
2022/12/12 07:45:29;;;;;;;45.63;15.60;;;0.00;99.90;;;;;;5019158;28;20718;-77
2022/12/12 07:47:55;;;;;;;40.80;14.95;;;0.00;99.90;;;;;;5021369;28;20086;-76
2022/12/12 07:50:21;;;;;;;37.60;15.43;;;0.00;99.90;;;;;;5023755;28;20072;-77
2022/12/12 07:52:50;;;;;;;41.20;15.18;;;0.00;99.90;;;;;;5028125;28;20032;-77
2022/12/12 07:55:18;;;;;;;48.42;15.50;;;0.00;99.90;;;;;;5021631;28;20044;-77
2022/12/12 07:57:43;;;;;;;39.15;14.10;;;0.00;99.90;;;;;;5024819;28;20030;-77
2022/12/12 08:00:14;;;;;;;41.40;17.17;;;0.00;99.90;;;;;;5023497;28;20041;-77
2022/12/12 08:02:39;;;;;;;34.88;14.95;;;0.00;99.90;;;;;;5020237;28;20026;-76
2022/12/12 08:05:06;;;;;;;34.92;14.77;;;0.10;99.90;;;;;;5019892;28;20331;-77
2022/12/12 08:07:31;;;;;;;37.10;15.80;;;0.10;99.90;;;;;;5021980;28;20034;-76
2022/12/12 08:09:57;;;;;;;38.03;15.85;;;0.10;99.90;;;;;;5030861;28;20029;-75
2022/12/12 08:12:22;;;;;;;40.17;16.40;;;0.10;99.90;;;;;;5022854;28;20033;-72
2022/12/12 08:14:48;;;;;;;63.08;18.00;;;0.10;99.90;;;;;;5022822;28;20056;-71
2022/12/12 08:17:14;;;;;;;46.35;16.02;;;0.20;99.90;;;;;;5036461;28;20366;-77
2022/12/12 08:19:40;;;;;;;43.45;14.65;;;0.30;99.90;;;;;;5018945;28;20761;-75
2022/12/12 08:22:07;;;;;;;38.05;15.15;;;0.30;99.90;;;;;;5041037;28;20468;-76
2022/12/12 08:24:33;;;;;;;41.78;16.38;;;0.30;99.90;;;;;;5040158;28;20029;-76
2022/12/12 08:26:58;;;;;;;40.80;17.30;;;0.40;99.90;;;;;;5019897;28;20861;-77
2022/12/12 08:29:24;;;;;;;39.30;16.55;;;0.40;99.90;;;;;;5018866;28;20482;-75
2022/12/12 08:31:50;;;;;;;38.33;15.95;;;0.40;99.90;;;;;;5035627;28;20124;-78
2022/12/12 08:34:17;;;;;;;41.83;16.23;;;0.40;99.90;;;;;;5021782;28;20022;-77
2022/12/12 08:36:44;;;;;;;39.38;15.95;;;0.40;99.90;;;;;;5018446;28;20088;-78
2022/12/12 08:39:14;;;;;;;44.72;17.50;;;0.40;99.90;;;;;;5026942;28;20696;-76
2022/12/12 08:41:42;;;;;;;41.38;17.65;;;0.50;99.90;;;;;;5021638;28;20084;-76
2022/12/12 08:44:11;;;;;;;40.15;16.88;;;0.40;99.90;;;;;;5024234;28;20029;-77
2022/12/12 08:46:40;;;;;;;47.53;17.58;;;0.40;99.90;;;;;;5021723;28;20036;-77
2022/12/12 08:49:07;;;;;;;47.15;18.52;;;0.50;99.90;;;;;;5025869;28;20067;-77
2022/12/12 08:51:34;;;;;;;41.97;17.13;;;0.60;99.90;;;;;;5019852;28;20076;-72
2022/12/12 08:54:04;;;;;;;47.05;18.83;;;0.60;99.90;;;;;;5027540;28;20437;-77
2022/12/12 08:56:29;;;;;;;50.75;18.13;;;0.70;99.90;;;;;;5022838;28;20029;-77
2022/12/12 08:58:55;;;;;;;41.03;17.80;;;0.80;99.90;;;;;;5035174;28;20026;-76
2022/12/12 09:01:23;;;;;;;47.75;18.38;;;0.90;99.90;;;;;;5023820;28;20109;-77
2022/12/12 09:03:54;;;;;;;49.88;18.08;;;0.90;99.90;;;;;;5023387;28;20037;-77
2022/12/12 09:06:21;;;;;;;54.20;19.42;;;0.90;99.90;;;;;;5026792;28;20034;-76
2022/12/12 09:08:49;;;;;;;58.45;19.73;;;0.90;99.90;;;;;;5018553;28;20026;-77
2022/12/12 09:11:16;;;;;;;56.20;19.23;;;0.90;99.90;;;;;;5020405;28;20021;-76
2022/12/12 09:13:42;;;;;;;54.88;20.55;;;1.00;99.90;;;;;;5021901;28;20054;-74
2022/12/12 09:16:09;;;;;;;54.58;21.33;;;1.00;99.90;;;;;;5014782;28;20404;-75
2022/12/12 09:18:38;;;;;;;44.83;19.48;;;1.00;99.90;;;;;;5025444;28;20068;-77
2022/12/12 09:21:07;;;;;;;46.55;19.23;;;1.10;99.90;;;;;;5023883;28;20133;-71
2022/12/12 09:23:33;;;;;;;53.92;19.02;;;1.20;99.90;;;;;;5016993;28;20033;-76
2022/12/12 09:26:09;;;;;;;49.05;17.33;;;1.30;99.90;;;;;;5023846;28;20429;-76
2022/12/12 09:28:35;;;;;;;49.13;17.77;;;1.40;99.90;;;;;;5018135;28;20064;-77
2022/12/12 09:31:06;;;;;;;42.88;18.15;;;1.50;99.90;;;;;;5020069;28;20041;-78
2022/12/12 09:33:33;;;;;;;50.63;17.70;;;1.50;99.90;;;;;;5035217;28;20032;-77
2022/12/12 09:36:01;;;;;;;44.10;17.88;;;1.50;99.90;;;;;;5020304;28;20038;-77
2022/12/12 09:38:29;;;;;;;46.85;18.17;;;1.60;99.90;;;;;;5022928;28;20029;-76
2022/12/12 09:41:02;;;;;;;45.80;17.80;;;1.70;99.90;;;;;;5026034;28;20093;-77
2022/12/12 09:43:37;;;;;;;36.53;16.98;;;1.70;99.90;;;;;;5023511;28;20026;-76
2022/12/12 09:46:38;;;;;;;40.88;16.63;;;1.80;99.90;;;;;;5025131;28;20042;-76
2022/12/12 09:49:13;;;;;;;39.53;16.83;;;1.80;99.90;;;;;;5029522;28;20033;-72
2022/12/12 09:51:41;;;;;;;45.55;16.90;;;1.90;99.90;;;;;;5022657;28;20108;-76
2022/12/12 09:54:12;;;;;;;42.33;16.92;;;2.00;99.90;;;;;;5031573;28;20156;-77
2022/12/12 09:57:12;;;;;;;39.13;16.45;;;2.00;99.90;;;;;;5035264;28;20037;-76
2022/12/12 09:59:45;;;;;;;39.92;16.00;;;2.10;99.90;;;;;;5019662;28;20124;-76
2022/12/12 10:02:31;;;;;;;41.70;16.65;;;2.20;99.90;;;;;;5023857;28;20136;-76
2022/12/12 10:05:01;;;;;;;37.97;15.20;;;2.20;99.90;;;;;;5019382;28;20128;-76
2022/12/12 10:07:45;;;;;;;44.75;16.45;;;2.30;99.90;;;;;;5019083;28;20428;-77
2022/12/12 10:10:24;;;;;;;42.53;16.70;;;2.30;99.90;;;;;;5018714;28;20070;-72
2022/12/12 10:12:51;;;;;;;38.00;15.48;;;2.40;99.90;;;;;;5019467;28;20745;-75
2022/12/12 10:15:42;;;;;;;35.33;15.68;;;2.50;99.90;;;;;;5017077;28;20035;-76
2022/12/12 10:18:33;;;;;;;42.17;15.77;;;2.50;99.90;;;;;;5010336;28;20131;-75
2022/12/12 10:21:02;;;;;;;35.08;14.95;;;2.40;99.90;;;;;;5023832;28;20538;-76
2022/12/12 10:23:49;;;;;;;40.30;15.15;;;2.50;99.90;;;;;;5026658;28;20029;-77
2022/12/12 10:26:20;;;;;;;39.22;15.65;;;2.40;99.90;;;;;;5033263;28;20494;-76
2022/12/12 10:28:52;;;;;;;37.30;15.27;;;2.40;99.90;;;;;;5024595;28;20049;-77
2022/12/12 10:31:48;;;;;;;33.58;14.38;;;2.40;99.90;;;;;;5018630;28;20076;-76
2022/12/12 10:34:32;;;;;;;40.47;15.68;;;2.60;99.90;;;;;;5020005;28;20466;-76
2022/12/12 10:37:08;;;;;;;45.50;15.90;;;2.70;99.90;;;;;;5017503;28;20049;-76
2022/12/12 10:40:13;;;;;;;32.80;14.88;;;2.80;99.90;;;;;;5017952;28;20136;-72
2022/12/12 10:43:01;;;;;;;35.22;15.30;;;3.00;99.90;;;;;;5019307;28;20026;-71
2022/12/12 10:45:39;;;;;;;38.40;15.38;;;3.30;99.90;;;;;;5021595;28;20066;-75
2022/12/12 10:48:05;;;;;;;35.55;15.10;;;3.50;99.90;;;;;;5022953;28;20029;-76
2022/12/12 10:51:05;;;;;;;33.88;14.63;;;3.60;99.90;;;;;;5017132;28;20044;-77
2022/12/12 10:53:32;;;;;;;32.60;14.02;;;3.90;99.90;;;;;;5021908;28;20029;-77
2022/12/12 10:56:12;;;;;;;33.25;12.52;;;4.10;99.90;;;;;;5018897;28;20474;-77
2022/12/12 10:58:41;;;;;;;29.92;13.73;;;4.50;99.90;;;;;;5016982;28;20037;-76
2022/12/12 11:01:34;;;;;;;27.83;12.52;;;4.80;99.90;;;;;;5033680;28;20044;-77
2022/12/12 11:04:01;;;;;;;27.17;11.55;;;5.00;99.90;;;;;;5017235;28;20220;-76
2022/12/12 11:06:36;;;;;;;26.15;12.18;;;5.30;99.90;;;;;;5015669;28;20037;-77
2022/12/12 11:09:14;;;;;;;25.73;11.88;;;5.30;99.90;;;;;;5015939;28;20036;-77
2022/12/12 11:11:40;;;;;;;26.35;11.02;;;5.60;99.90;;;;;;5031835;28;20068;-77
2022/12/12 11:14:25;;;;;;;20.27;9.80;;;5.50;99.90;;;;;;5017058;28;20544;-81
2022/12/12 11:16:51;;;;;;;24.00;10.35;;;5.60;99.90;;;;;;5026918;28;20033;-78
2022/12/12 11:19:25;;;;;;;28.52;11.80;;;5.80;99.90;;;;;;5020405;28;20445;-74
2022/12/12 11:21:54;;;;;;;25.05;10.38;;;5.80;99.90;;;;;;5037954;28;20042;-78
2022/12/12 11:24:29;;;;;;;29.10;12.52;;;6.10;99.90;;;;;;5039132;28;20030;-79
2022/12/12 11:27:05;;;;;;;26.55;10.55;;;6.30;99.90;;;;;;5022304;28;20040;-79
2022/12/12 11:30:00;;;;;;;28.17;11.57;;;6.60;99.90;;;;;;5038469;28;20094;-77
2022/12/12 11:32:38;;;;;;;23.52;9.35;;;6.30;99.90;;;;;;5025472;28;20042;-77
2022/12/12 11:35:20;;;;;;;29.33;10.38;;;6.20;99.90;;;;;;5034200;28;20415;-78
2022/12/12 11:37:50;;;;;;;26.60;10.90;;;6.20;99.90;;;;;;5025595;28;20033;-79
2022/12/12 11:40:24;;;;;;;25.23;10.55;;;6.30;99.90;;;;;;5022879;28;20474;-79
2022/12/12 11:42:50;;;;;;;21.27;10.95;;;6.50;99.90;;;;;;5037111;28;20463;-78
2022/12/12 11:45:16;;;;;;;25.25;10.82;;;6.50;99.90;;;;;;5027718;28;20136;-78
2022/12/12 11:47:47;;;;;;;24.73;11.38;;;6.70;99.90;;;;;;5043424;28;20045;-74
2022/12/12 11:50:25;;;;;;;30.45;12.48;;;6.80;99.90;;;;;;5022883;28;20582;-74
2022/12/12 11:52:53;;;;;;;28.55;10.82;;;6.70;99.90;;;;;;5030534;28;20029;-78
2022/12/12 11:55:45;;;;;;;23.02;10.90;;;6.70;99.90;;;;;;5024126;28;20196;-78
2022/12/12 11:58:13;;;;;;;21.88;9.85;;;6.90;99.90;;;;;;5014509;28;20053;-78
2022/12/12 12:00:49;;;;;;;22.50;9.55;;;6.70;99.90;;;;;;5025653;28;20109;-77
2022/12/12 12:04:16;;;;;;;19.70;9.98;;;7.00;99.90;;;;;;5030171;28;20033;-78
2022/12/12 12:07:17;;;;;;;21.77;9.55;;;7.10;99.90;;;;;;4966707;28;20071;-78
2022/12/12 12:09:46;;;;;;;23.02;11.43;;;7.10;99.90;;;;;;5010647;28;20083;-77
2022/12/12 12:12:17;;;;;;;25.67;10.57;;;7.00;99.90;;;;;;5026337;28;20392;-78
2022/12/12 12:14:44;;;;;;;28.05;11.73;;;7.20;99.90;;;;;;5020624;28;20113;-77
2022/12/12 12:17:13;;;;;;;24.35;11.65;;;7.30;99.90;;;;;;5021547;28;20029;-78
2022/12/12 12:19:45;;;;;;;25.08;11.60;;;7.50;99.90;;;;;;5022263;28;20075;-77
2022/12/12 12:22:16;;;;;;;25.47;12.23;;;7.60;99.90;;;;;;5025394;28;20036;-77
2022/12/12 12:25:19;;;;;;;27.40;13.00;;;7.70;99.90;;;;;;5024169;28;20026;-73
2022/12/12 12:27:53;;;;;;;27.92;12.05;;;7.90;99.90;;;;;;5024526;28;20435;-78
2022/12/12 12:30:24;;;;;;;27.25;11.90;;;8.00;99.80;;;;;;5022504;28;20174;-77
2022/12/12 12:33:24;;;;;;;25.83;11.50;;;7.80;99.70;;;;;;5025514;28;20443;-78
2022/12/12 12:35:55;;;;;;;27.83;11.50;;;7.70;99.90;;;;;;5023860;28;20121;-77
2022/12/12 12:38:49;;;;;;;28.45;11.80;;;7.70;99.90;;;;;;5028379;28;20101;-77
2022/12/12 12:41:48;;;;;;;25.73;11.00;;;7.80;98.60;;;;;;5026205;28;20184;-77
2022/12/12 12:44:30;;;;;;;26.55;11.80;;;7.60;99.40;;;;;;5039435;28;20641;-75
2022/12/12 12:47:40;;;;;;;26.55;11.80;;;7.80;99.90;;;;;;5025440;28;20037;-77
2022/12/12 12:50:30;;;;;;;24.23;11.10;;;7.90;99.10;;;;;;5022404;28;20029;-77
2022/12/12 12:53:30;;;;;;;27.83;11.82;;;8.00;98.50;;;;;;5039535;28;20025;-77
2022/12/12 12:56:00;;;;;;;25.08;10.55;;;8.20;99.00;;;;;;5024893;28;20113;-76
2022/12/12 12:58:32;;;;;;;25.77;10.77;;;8.20;97.80;;;;;;5040333;28;20285;-77
2022/12/12 13:01:07;;;;;;;24.13;11.40;;;8.10;97.40;;;;;;5029012;28;20026;-72
2022/12/12 13:04:06;;;;;;;29.90;11.80;;;8.20;97.90;;;;;;5015507;28;20518;-77
2022/12/12 13:06:39;;;;;;;22.38;10.75;;;8.30;97.50;;;;;;5039080;28;20030;-76
2022/12/12 13:09:17;;;;;;;;;;;8.40;96.90;;;;;;5022906;28;20049;-76
2022/12/12 13:11:46;;;;;;;23.80;11.02;;;9.10;97.40;;;;;;5018569;28;20265;-77
2022/12/12 13:14:17;;;;;;;20.95;10.85;;;14.00;90.90;;;;;;5020218;28;20129;-78
2022/12/12 13:16:44;;;;;;;23.03;10.73;;;18.50;67.40;;;;;;5038350;28;20112;-78
2022/12/12 13:19:37;;;;;;;24.50;11.10;;;21.90;51.10;;;;;;5036960;28;20115;-76